Time;durP1;ratioP1;P1;durP2;ratioP2;P2;SDS_P1;SDS_P2;PMS_P1;PMS_P2;Temp;Humidity;BMP_temperature;BMP_pressure;BME280_temperature;BME280_humidity;BME280_pressure;Samples;Min_cycle;Max_cycle;Signal;HPM_P1;HPM_P2
2021/05/26 00:01:02;;;;;;;3.9;2;;;10.5;99.9;;;;;;;;;
2021/05/26 00:02:02;;;;;;;3.85;1.88;;;10.4;99.9;;;;;;;;;
2021/05/26 00:03:02;;;;;;;3.3;1.95;;;10.4;99.9;;;;;;;;;
2021/05/26 00:03:13;;;;;;;3.38;1.77;;;10.4;99.9;;;;;;;;;
2021/05/26 00:04:02;;;;;;;3.38;1.77;;;10.4;99.9;;;;;;;;;
2021/05/26 00:04:14;;;;;;;5.22;1.92;;;10.3;99.9;;;;;;;;;
2021/05/26 00:05:02;;;;;;;5.22;1.92;;;10.3;99.9;;;;;;;;;
2021/05/26 00:05:16;;;;;;;5.9;2;;;10.2;99.9;;;;;;;;;
2021/05/26 00:05:27;;;;;;;5.9;2;;;10.2;99.9;;;;;;;;;
2021/05/26 00:06:02;;;;;;;5.9;2;;;10.2;99.9;;;;;;;;;
2021/05/26 00:06:17;;;;;;;5.22;2.22;;;10.3;99.9;;;;;;;;;
2021/05/26 00:06:27;;;;;;;5.22;2.22;;;10.3;99.9;;;;;;;;;
2021/05/26 00:07:02;;;;;;;5.22;2.22;;;10.3;99.9;;;;;;;;;
2021/05/26 00:07:13;;;;;;;5;2.08;;;10.3;99.9;;;;;;;;;
2021/05/26 00:07:29;;;;;;;5;2.08;;;10.3;99.9;;;;;;;;;
2021/05/26 00:07:39;;;;;;;5;2.08;;;10.3;99.9;;;;;;;;;
2021/05/26 00:08:02;;;;;;;5;2.08;;;10.3;99.9;;;;;;;;;
2021/05/26 00:08:15;;;;;;;4.78;2.17;;;10.1;99.9;;;;;;;;;
2021/05/26 00:08:30;;;;;;;4.78;2.17;;;10.1;99.9;;;;;;;;;
2021/05/26 00:08:40;;;;;;;4.78;2.17;;;10.1;99.9;;;;;;;;;
2021/05/26 00:09:02;;;;;;;4.78;2.17;;;10.1;99.9;;;;;;;;;
2021/05/26 00:09:16;;;;;;;5.8;1.92;;;10.2;99.9;;;;;;;;;
2021/05/26 00:09:27;;;;;;;5.8;1.92;;;10.2;99.9;;;;;;;;;
2021/05/26 00:09:42;;;;;;;5.8;1.92;;;10.2;99.9;;;;;;;;;
2021/05/26 00:09:52;;;;;;;5.8;1.92;;;10.2;99.9;;;;;;;;;
2021/05/26 00:10:02;;;;;;;5.8;1.92;;;10.2;99.9;;;;;;;;;
2021/05/26 00:10:12;;;;;;;5.8;1.92;;;10.2;99.9;;;;;;;;;
2021/05/26 00:10:38;;;;;;;3.28;1.85;;;10.3;99.9;;;;;;;;;
2021/05/26 00:10:43;;;;;;;3.28;1.85;;;10.3;99.9;;;;;;;;;
2021/05/26 00:10:54;;;;;;;3.28;1.85;;;10.3;99.9;;;;;;;;;
2021/05/26 00:11:02;;;;;;;3.28;1.85;;;10.3;99.9;;;;;;;;;
2021/05/26 00:11:19;;;;;;;3.38;1.9;;;10.3;99.9;;;;;;;;;
2021/05/26 00:11:29;;;;;;;3.38;1.9;;;10.3;99.9;;;;;;;;;
2021/05/26 00:11:40;;;;;;;3.38;1.9;;;10.3;99.9;;;;;;;;;
2021/05/26 00:11:55;;;;;;;3.38;1.9;;;10.3;99.9;;;;;;;;;
2021/05/26 00:12:02;;;;;;;3.38;1.9;;;10.3;99.9;;;;;;;;;
2021/05/26 00:12:05;;;;;;;3.38;1.9;;;10.3;99.9;;;;;;;;;
2021/05/26 00:12:15;;;;;;;2.92;2;;;10.3;99.9;;;;;;;;;
2021/05/26 00:12:26;;;;;;;2.92;2;;;10.3;99.9;;;;;;;;;
2021/05/26 00:12:51;;;;;;;2.92;2;;;10.3;99.9;;;;;;;;;
2021/05/26 00:12:56;;;;;;;2.92;2;;;10.3;99.9;;;;;;;;;
2021/05/26 00:13:02;;;;;;;2.92;2;;;10.3;99.9;;;;;;;;;
2021/05/26 00:13:07;;;;;;;2.92;2;;;10.3;99.9;;;;;;;;;
2021/05/26 00:13:17;;;;;;;3.35;2.1;;;10.3;99.9;;;;;;;;;
2021/05/26 00:13:32;;;;;;;3.35;2.1;;;10.3;99.9;;;;;;;;;
2021/05/26 00:13:42;;;;;;;3.35;2.1;;;10.3;99.9;;;;;;;;;
2021/05/26 00:13:53;;;;;;;3.35;2.1;;;10.3;99.9;;;;;;;;;
2021/05/26 00:14:02;;;;;;;3.35;2.1;;;10.3;99.9;;;;;;;;;
2021/05/26 00:14:08;;;;;;;3.35;2.1;;;10.3;99.9;;;;;;;;;
2021/05/26 00:14:13;;;;;;;3.35;2.1;;;10.3;99.9;;;;;;;;;
2021/05/26 00:14:29;;;;;;;2.4;1.88;;;10.3;99.9;;;;;;;;;
2021/05/26 00:14:39;;;;;;;2.4;1.88;;;10.3;99.9;;;;;;;;;
2021/05/26 00:15:02;;;;;;;2.4;1.88;;;10.3;99.9;;;;;;;;;
2021/05/26 00:15:05;;;;;;;2.4;1.88;;;10.3;99.9;;;;;;;;;
2021/05/26 00:15:10;;;;;;;2.4;1.88;;;10.3;99.9;;;;;;;;;
2021/05/26 00:15:15;;;;;;;2.4;1.88;;;10.3;99.9;;;;;;;;;
2021/05/26 00:15:30;;;;;;;5.47;1.85;;;10.2;99.9;;;;;;;;;
2021/05/26 00:15:45;;;;;;;5.47;1.85;;;10.2;99.9;;;;;;;;;
2021/05/26 00:15:56;;;;;;;5.47;1.85;;;10.2;99.9;;;;;;;;;
2021/05/26 00:16:01;;;;;;;5.47;1.85;;;10.2;99.9;;;;;;;;;
2021/05/26 00:16:06;;;;;;;5.47;1.85;;;10.2;99.9;;;;;;;;;
2021/05/26 00:16:16;;;;;;;3.05;1.9;;;10.2;99.9;;;;;;;;;
2021/05/26 00:16:26;;;;;;;3.05;1.9;;;10.2;99.9;;;;;;;;;
2021/05/26 00:16:42;;;;;;;3.05;1.9;;;10.2;99.9;;;;;;;;;
2021/05/26 00:16:52;;;;;;;3.05;1.9;;;10.2;99.9;;;;;;;;;
2021/05/26 00:17:03;;;;;;;3.05;1.9;;;10.2;99.9;;;;;;;;;
2021/05/26 00:17:17;;;;;;;3.4;2;;;10.2;99.9;;;;;;;;;
2021/05/26 00:17:18;;;;;;;3.4;2;;;10.2;99.9;;;;;;;;;
2021/05/26 00:17:28;;;;;;;3.4;2;;;10.2;99.9;;;;;;;;;
2021/05/26 00:17:43;;;;;;;3.4;2;;;10.2;99.9;;;;;;;;;
2021/05/26 00:17:58;;;;;;;3.4;2;;;10.2;99.9;;;;;;;;;
2021/05/26 00:18:02;;;;;;;3.4;2;;;10.2;99.9;;;;;;;;;
2021/05/26 00:18:09;;;;;;;3.4;2;;;10.2;99.9;;;;;;;;;
2021/05/26 00:18:14;;;;;;;3.4;2;;;10.2;99.9;;;;;;;;;
2021/05/26 00:18:30;;;;;;;4.1;1.7;;;10.2;99.9;;;;;;;;;
2021/05/26 00:18:39;;;;;;;4.1;1.7;;;10.2;99.9;;;;;;;;;
2021/05/26 00:18:55;;;;;;;4.1;1.7;;;10.2;99.9;;;;;;;;;
2021/05/26 00:19:02;;;;;;;4.1;1.7;;;10.2;99.9;;;;;;;;;
2021/05/26 00:19:06;;;;;;;4.1;1.7;;;10.2;99.9;;;;;;;;;
2021/05/26 00:19:15;;;;;;;4.1;1.7;;;10.2;99.9;;;;;;;;;
2021/05/26 00:19:31;;;;;;;3.4;1.75;;;10.2;99.9;;;;;;;;;
2021/05/26 00:19:43;;;;;;;3.4;1.75;;;10.2;99.9;;;;;;;;;
2021/05/26 00:19:56;;;;;;;3.4;1.75;;;10.2;99.9;;;;;;;;;
2021/05/26 00:20:02;;;;;;;3.4;1.75;;;10.2;99.9;;;;;;;;;
2021/05/26 00:20:12;;;;;;;3.4;1.75;;;10.2;99.9;;;;;;;;;
2021/05/26 00:20:17;;;;;;;3.4;1.75;;;10.2;99.9;;;;;;;;;
2021/05/26 00:20:27;;;;;;;3.67;1.95;;;10.1;99.9;;;;;;;;;
2021/05/26 00:20:43;;;;;;;3.67;1.95;;;10.1;99.9;;;;;;;;;
2021/05/26 00:20:53;;;;;;;3.67;1.95;;;10.1;99.9;;;;;;;;;
2021/05/26 00:21:01;;;;;;;3.67;1.95;;;10.1;99.9;;;;;;;;;
2021/05/26 00:21:09;;;;;;;3.67;1.95;;;10.1;99.9;;;;;;;;;
2021/05/26 00:21:13;;;;;;;3.67;1.95;;;10.1;99.9;;;;;;;;;
2021/05/26 00:21:30;;;;;;;3.17;1.5;;;10.2;99.9;;;;;;;;;
2021/05/26 00:21:44;;;;;;;3.17;1.5;;;10.2;99.9;;;;;;;;;
2021/05/26 00:21:54;;;;;;;3.17;1.5;;;10.2;99.9;;;;;;;;;
2021/05/26 00:22:02;;;;;;;3.17;1.5;;;10.2;99.9;;;;;;;;;
2021/05/26 00:22:09;;;;;;;3.17;1.5;;;10.2;99.9;;;;;;;;;
2021/05/26 00:22:15;;;;;;;3.17;1.5;;;10.2;99.9;;;;;;;;;
2021/05/26 00:22:30;;;;;;;2.42;1.8;;;10.2;99.9;;;;;;;;;
2021/05/26 00:22:40;;;;;;;2.42;1.8;;;10.2;99.9;;;;;;;;;
2021/05/26 00:22:55;;;;;;;2.42;1.8;;;10.2;99.9;;;;;;;;;
2021/05/26 00:23:01;;;;;;;2.42;1.8;;;10.2;99.9;;;;;;;;;
2021/05/26 00:23:06;;;;;;;2.42;1.8;;;10.2;99.9;;;;;;;;;
2021/05/26 00:23:16;;;;;;;2.42;1.8;;;10.2;99.9;;;;;;;;;
2021/05/26 00:23:26;;;;;;;2.85;1.9;;;10.2;99.9;;;;;;;;;
2021/05/26 00:23:41;;;;;;;2.85;1.9;;;10.2;99.9;;;;;;;;;
2021/05/26 00:23:57;;;;;;;2.85;1.9;;;10.2;99.9;;;;;;;;;
2021/05/26 00:24:02;;;;;;;2.85;1.9;;;10.2;99.9;;;;;;;;;
2021/05/26 00:24:07;;;;;;;2.85;1.9;;;10.2;99.9;;;;;;;;;
2021/05/26 00:24:12;;;;;;;2.85;1.9;;;10.2;99.9;;;;;;;;;
2021/05/26 00:24:28;;;;;;;4.6;2;;;10.2;99.9;;;;;;;;;
2021/05/26 00:24:43;;;;;;;4.6;2;;;10.2;99.9;;;;;;;;;
2021/05/26 00:24:53;;;;;;;4.6;2;;;10.2;99.9;;;;;;;;;
2021/05/26 00:25:02;;;;;;;4.6;2;;;10.2;99.9;;;;;;;;;
2021/05/26 00:25:09;;;;;;;4.6;2;;;10.2;99.9;;;;;;;;;
2021/05/26 00:25:14;;;;;;;4.6;2;;;10.2;99.9;;;;;;;;;
2021/05/26 00:25:29;;;;;;;2.63;2;;;10.2;99.9;;;;;;;;;
2021/05/26 00:25:39;;;;;;;2.63;2;;;10.2;99.9;;;;;;;;;
2021/05/26 00:25:55;;;;;;;2.63;2;;;10.2;99.9;;;;;;;;;
2021/05/26 00:26:01;;;;;;;2.63;2;;;10.2;99.9;;;;;;;;;
2021/05/26 00:26:10;;;;;;;2.63;2;;;10.2;99.9;;;;;;;;;
2021/05/26 00:26:15;;;;;;;2.63;2;;;10.2;99.9;;;;;;;;;
2021/05/26 00:26:25;;;;;;;2.9;1.7;;;10.2;99.9;;;;;;;;;
2021/05/26 00:26:41;;;;;;;2.9;1.7;;;10.2;99.9;;;;;;;;;
2021/05/26 00:26:56;;;;;;;2.9;1.7;;;10.2;99.9;;;;;;;;;
2021/05/26 00:27:02;;;;;;;2.9;1.7;;;10.2;99.9;;;;;;;;;
2021/05/26 00:27:06;;;;;;;2.9;1.7;;;10.2;99.9;;;;;;;;;
2021/05/26 00:27:17;;;;;;;2.9;1.7;;;10.2;99.9;;;;;;;;;
2021/05/26 00:27:27;;;;;;;3.3;1.6;;;10.1;99.9;;;;;;;;;
2021/05/26 00:27:43;;;;;;;3.3;1.6;;;10.1;99.9;;;;;;;;;
2021/05/26 00:27:58;;;;;;;3.3;1.6;;;10.1;99.9;;;;;;;;;
2021/05/26 00:28:03;;;;;;;3.3;1.6;;;10.1;99.9;;;;;;;;;
2021/05/26 00:28:08;;;;;;;3.3;1.6;;;10.1;99.9;;;;;;;;;
2021/05/26 00:28:13;;;;;;;3.3;1.6;;;10.1;99.9;;;;;;;;;
2021/05/26 00:28:28;;;;;;;4.97;2.03;;;10.1;99.9;;;;;;;;;
2021/05/26 00:28:42;;;;;;;4.97;2.03;;;10.1;99.9;;;;;;;;;
2021/05/26 00:28:55;;;;;;;4.97;2.03;;;10.1;99.9;;;;;;;;;
2021/05/26 00:29:02;;;;;;;4.97;2.03;;;10.1;99.9;;;;;;;;;
2021/05/26 00:29:09;;;;;;;4.97;2.03;;;10.1;99.9;;;;;;;;;
2021/05/26 00:29:14;;;;;;;4.97;2.03;;;10.1;99.9;;;;;;;;;
2021/05/26 00:29:30;;;;;;;4.55;1.7;;;10;99.9;;;;;;;;;
2021/05/26 00:29:40;;;;;;;4.55;1.7;;;10;99.9;;;;;;;;;
2021/05/26 00:29:55;;;;;;;4.55;1.7;;;10;99.9;;;;;;;;;
2021/05/26 00:30:02;;;;;;;4.55;1.7;;;10;99.9;;;;;;;;;
2021/05/26 00:30:11;;;;;;;4.55;1.7;;;10;99.9;;;;;;;;;
2021/05/26 00:30:16;;;;;;;4.55;1.7;;;10;99.9;;;;;;;;;
2021/05/26 00:30:27;;;;;;;4.15;2.08;;;10;99.9;;;;;;;;;
2021/05/26 00:30:45;;;;;;;4.15;2.08;;;10;99.9;;;;;;;;;
2021/05/26 00:30:58;;;;;;;4.15;2.08;;;10;99.9;;;;;;;;;
2021/05/26 00:31:02;;;;;;;4.15;2.08;;;10;99.9;;;;;;;;;
2021/05/26 00:31:09;;;;;;;4.15;2.08;;;10;99.9;;;;;;;;;
2021/05/26 00:31:12;;;;;;;4.15;2.08;;;10;99.9;;;;;;;;;
2021/05/26 00:31:27;;;;;;;3.15;1.63;;;10;99.9;;;;;;;;;
2021/05/26 00:31:43;;;;;;;3.15;1.63;;;10;99.9;;;;;;;;;
2021/05/26 00:31:53;;;;;;;3.15;1.63;;;10;99.9;;;;;;;;;
2021/05/26 00:32:02;;;;;;;3.15;1.63;;;10;99.9;;;;;;;;;
2021/05/26 00:32:08;;;;;;;3.15;1.63;;;10;99.9;;;;;;;;;
2021/05/26 00:32:13;;;;;;;3.15;1.63;;;10;99.9;;;;;;;;;
2021/05/26 00:32:29;;;;;;;1.88;1.48;;;10.1;99.9;;;;;;;;;
2021/05/26 00:32:39;;;;;;;1.88;1.48;;;10.1;99.9;;;;;;;;;
2021/05/26 00:33:00;;;;;;;1.88;1.48;;;10.1;99.9;;;;;;;;;
2021/05/26 00:33:01;;;;;;;1.88;1.48;;;10.1;99.9;;;;;;;;;
2021/05/26 00:33:10;;;;;;;1.88;1.48;;;10.1;99.9;;;;;;;;;
2021/05/26 00:33:15;;;;;;;1.88;1.48;;;10.1;99.9;;;;;;;;;
2021/05/26 00:33:25;;;;;;;2.45;1.65;;;10;99.9;;;;;;;;;
2021/05/26 00:33:40;;;;;;;2.45;1.65;;;10;99.9;;;;;;;;;
2021/05/26 00:33:56;;;;;;;2.45;1.65;;;10;99.9;;;;;;;;;
2021/05/26 00:34:02;;;;;;;2.45;1.65;;;10;99.9;;;;;;;;;
2021/05/26 00:34:06;;;;;;;2.45;1.65;;;10;99.9;;;;;;;;;
2021/05/26 00:34:16;;;;;;;2.45;1.65;;;10;99.9;;;;;;;;;
2021/05/26 00:34:27;;;;;;;2.33;1.73;;;10;99.9;;;;;;;;;
2021/05/26 00:34:42;;;;;;;2.33;1.73;;;10;99.9;;;;;;;;;
2021/05/26 00:34:52;;;;;;;2.33;1.73;;;10;99.9;;;;;;;;;
2021/05/26 00:35:02;;;;;;;2.33;1.73;;;10;99.9;;;;;;;;;
2021/05/26 00:35:13;;;;;;;2.33;1.73;;;10;99.9;;;;;;;;;
2021/05/26 00:35:13;;;;;;;2.33;1.73;;;10;99.9;;;;;;;;;
2021/05/26 00:35:28;;;;;;;2.45;1.42;;;9.9;99.9;;;;;;;;;
2021/05/26 00:35:38;;;;;;;2.45;1.42;;;9.9;99.9;;;;;;;;;
2021/05/26 00:35:54;;;;;;;2.45;1.42;;;9.9;99.9;;;;;;;;;
2021/05/26 00:36:01;;;;;;;2.45;1.42;;;9.9;99.9;;;;;;;;;
2021/05/26 00:36:09;;;;;;;2.45;1.42;;;9.9;99.9;;;;;;;;;
2021/05/26 00:36:15;;;;;;;2.45;1.42;;;9.9;99.9;;;;;;;;;
2021/05/26 00:36:29;;;;;;;2.53;1.7;;;9.9;99.9;;;;;;;;;
2021/05/26 00:36:40;;;;;;;2.53;1.7;;;9.9;99.9;;;;;;;;;
2021/05/26 00:36:55;;;;;;;2.53;1.7;;;9.9;99.9;;;;;;;;;
2021/05/26 00:37:02;;;;;;;2.53;1.7;;;9.9;99.9;;;;;;;;;
2021/05/26 00:37:05;;;;;;;2.53;1.7;;;9.9;99.9;;;;;;;;;
2021/05/26 00:37:16;;;;;;;2.53;1.7;;;9.9;99.9;;;;;;;;;
2021/05/26 00:37:26;;;;;;;2.7;1.8;;;9.9;99.9;;;;;;;;;
2021/05/26 00:37:41;;;;;;;2.7;1.8;;;9.9;99.9;;;;;;;;;
2021/05/26 00:37:51;;;;;;;2.7;1.8;;;9.9;99.9;;;;;;;;;
2021/05/26 00:38:01;;;;;;;2.7;1.8;;;9.9;99.9;;;;;;;;;
2021/05/26 00:38:07;;;;;;;2.7;1.8;;;9.9;99.9;;;;;;;;;
2021/05/26 00:38:17;;;;;;;2.7;1.8;;;9.9;99.9;;;;;;;;;
2021/05/26 00:38:27;;;;;;;5.82;1.55;;;9.9;99.9;;;;;;;;;
2021/05/26 00:38:43;;;;;;;5.82;1.55;;;9.9;99.9;;;;;;;;;
2021/05/26 00:38:53;;;;;;;5.82;1.55;;;9.9;99.9;;;;;;;;;
2021/05/26 00:39:02;;;;;;;5.82;1.55;;;9.9;99.9;;;;;;;;;
2021/05/26 00:39:08;;;;;;;5.82;1.55;;;9.9;99.9;;;;;;;;;
2021/05/26 00:39:13;;;;;;;5.82;1.55;;;9.9;99.9;;;;;;;;;
2021/05/26 00:39:29;;;;;;;2.95;1.55;;;9.8;99.9;;;;;;;;;
2021/05/26 00:39:39;;;;;;;2.95;1.55;;;9.8;99.9;;;;;;;;;
2021/05/26 00:39:56;;;;;;;2.95;1.55;;;9.8;99.9;;;;;;;;;
2021/05/26 00:40:02;;;;;;;2.95;1.55;;;9.8;99.9;;;;;;;;;
2021/05/26 00:40:05;;;;;;;2.95;1.55;;;9.8;99.9;;;;;;;;;
2021/05/26 00:40:15;;;;;;;2.95;1.55;;;9.8;99.9;;;;;;;;;
2021/05/26 00:40:30;;;;;;;2.67;1.65;;;9.8;99.9;;;;;;;;;
2021/05/26 00:40:40;;;;;;;2.67;1.65;;;9.8;99.9;;;;;;;;;
2021/05/26 00:40:56;;;;;;;2.67;1.65;;;9.8;99.9;;;;;;;;;
2021/05/26 00:41:02;;;;;;;2.67;1.65;;;9.8;99.9;;;;;;;;;
2021/05/26 00:41:06;;;;;;;2.67;1.65;;;9.8;99.9;;;;;;;;;
2021/05/26 00:41:16;;;;;;;2.67;1.65;;;9.8;99.9;;;;;;;;;
2021/05/26 00:41:26;;;;;;;1.98;1.6;;;9.8;99.9;;;;;;;;;
2021/05/26 00:41:42;;;;;;;1.98;1.6;;;9.8;99.9;;;;;;;;;
2021/05/26 00:41:52;;;;;;;1.98;1.6;;;9.8;99.9;;;;;;;;;
2021/05/26 00:42:02;;;;;;;1.98;1.6;;;9.8;99.9;;;;;;;;;
2021/05/26 00:42:07;;;;;;;1.98;1.6;;;9.8;99.9;;;;;;;;;
2021/05/26 00:42:18;;;;;;;1.98;1.6;;;9.8;99.9;;;;;;;;;
2021/05/26 00:42:30;;;;;;;3.85;1.8;;;9.8;99.9;;;;;;;;;
2021/05/26 00:42:43;;;;;;;3.85;1.8;;;9.8;99.9;;;;;;;;;
2021/05/26 00:42:53;;;;;;;3.85;1.8;;;9.8;99.9;;;;;;;;;
2021/05/26 00:43:02;;;;;;;3.85;1.8;;;9.8;99.9;;;;;;;;;
2021/05/26 00:43:09;;;;;;;3.85;1.8;;;9.8;99.9;;;;;;;;;
2021/05/26 00:43:14;;;;;;;3.85;1.8;;;9.8;99.9;;;;;;;;;
2021/05/26 00:43:29;;;;;;;4.13;1.95;;;9.8;99.9;;;;;;;;;
2021/05/26 00:43:40;;;;;;;4.13;1.95;;;9.8;99.9;;;;;;;;;
2021/05/26 00:43:55;;;;;;;4.13;1.95;;;9.8;99.9;;;;;;;;;
2021/05/26 00:44:02;;;;;;;4.13;1.95;;;9.8;99.9;;;;;;;;;
2021/05/26 00:44:05;;;;;;;4.13;1.95;;;9.8;99.9;;;;;;;;;
2021/05/26 00:44:15;;;;;;;4.13;1.95;;;9.8;99.9;;;;;;;;;
2021/05/26 00:44:31;;;;;;;3.97;1.73;;;9.7;99.9;;;;;;;;;
2021/05/26 00:44:41;;;;;;;3.97;1.73;;;9.7;99.9;;;;;;;;;
2021/05/26 00:44:56;;;;;;;3.97;1.73;;;9.7;99.9;;;;;;;;;
2021/05/26 00:45:02;;;;;;;3.97;1.73;;;9.7;99.9;;;;;;;;;
2021/05/26 00:45:07;;;;;;;3.97;1.73;;;9.7;99.9;;;;;;;;;
2021/05/26 00:45:17;;;;;;;3.97;1.73;;;9.7;99.9;;;;;;;;;
2021/05/26 00:45:27;;;;;;;2.67;1.6;;;9.8;99.9;;;;;;;;;
2021/05/26 00:45:42;;;;;;;2.67;1.6;;;9.8;99.9;;;;;;;;;
2021/05/26 00:45:53;;;;;;;2.67;1.6;;;9.8;99.9;;;;;;;;;
2021/05/26 00:46:02;;;;;;;2.67;1.6;;;9.8;99.9;;;;;;;;;
2021/05/26 00:46:08;;;;;;;2.67;1.6;;;9.8;99.9;;;;;;;;;
2021/05/26 00:46:13;;;;;;;2.67;1.6;;;9.8;99.9;;;;;;;;;
2021/05/26 00:46:29;;;;;;;4.47;1.77;;;9.8;99.9;;;;;;;;;
2021/05/26 00:46:44;;;;;;;4.47;1.77;;;9.8;99.9;;;;;;;;;
2021/05/26 00:46:54;;;;;;;4.47;1.77;;;9.8;99.9;;;;;;;;;
2021/05/26 00:47:02;;;;;;;4.47;1.77;;;9.8;99.9;;;;;;;;;
2021/05/26 00:47:09;;;;;;;4.47;1.77;;;9.8;99.9;;;;;;;;;
2021/05/26 00:47:15;;;;;;;4.47;1.77;;;9.8;99.9;;;;;;;;;
2021/05/26 00:47:30;;;;;;;3.08;1.77;;;9.9;99.9;;;;;;;;;
2021/05/26 00:47:40;;;;;;;3.08;1.77;;;9.9;99.9;;;;;;;;;
2021/05/26 00:47:56;;;;;;;3.08;1.77;;;9.9;99.9;;;;;;;;;
2021/05/26 00:48:01;;;;;;;3.08;1.77;;;9.9;99.9;;;;;;;;;
2021/05/26 00:48:06;;;;;;;3.08;1.77;;;9.9;99.9;;;;;;;;;
2021/05/26 00:48:16;;;;;;;3.08;1.77;;;9.9;99.9;;;;;;;;;
2021/05/26 00:48:26;;;;;;;4.65;1.95;;;9.9;99.9;;;;;;;;;
2021/05/26 00:48:42;;;;;;;4.65;1.95;;;9.9;99.9;;;;;;;;;
2021/05/26 00:48:57;;;;;;;4.65;1.95;;;9.9;99.9;;;;;;;;;
2021/05/26 00:49:02;;;;;;;4.65;1.95;;;9.9;99.9;;;;;;;;;
2021/05/26 00:49:07;;;;;;;4.65;1.95;;;9.9;99.9;;;;;;;;;
2021/05/26 00:49:12;;;;;;;4.65;1.95;;;9.9;99.9;;;;;;;;;
2021/05/26 00:49:44;;;;;;;4.72;2.15;;;9.8;99.9;;;;;;;;;
2021/05/26 00:49:48;;;;;;;4.72;2.15;;;9.8;99.9;;;;;;;;;
2021/05/26 00:49:53;;;;;;;4.72;2.15;;;9.8;99.9;;;;;;;;;
2021/05/26 00:50:02;;;;;;;4.72;2.15;;;9.8;99.9;;;;;;;;;
2021/05/26 00:50:09;;;;;;;4.72;2.15;;;9.8;99.9;;;;;;;;;
2021/05/26 00:50:14;;;;;;;4.72;2.15;;;9.8;99.9;;;;;;;;;
2021/05/26 00:50:29;;;;;;;2.38;1.7;;;9.9;99.9;;;;;;;;;
2021/05/26 00:50:39;;;;;;;2.38;1.7;;;9.9;99.9;;;;;;;;;
2021/05/26 00:50:55;;;;;;;2.38;1.7;;;9.9;99.9;;;;;;;;;
2021/05/26 00:51:01;;;;;;;2.38;1.7;;;9.9;99.9;;;;;;;;;
2021/05/26 00:51:10;;;;;;;2.38;1.7;;;9.9;99.9;;;;;;;;;
2021/05/26 00:51:15;;;;;;;2.38;1.7;;;9.9;99.9;;;;;;;;;
2021/05/26 00:51:25;;;;;;;2.38;1.7;;;9.9;99.9;;;;;;;;;
2021/05/26 00:52:01;;;;;;;3.92;1.9;;;9.9;99.9;;;;;;;;;
2021/05/26 00:52:01;;;;;;;3.92;1.9;;;9.9;99.9;;;;;;;;;
2021/05/26 00:52:02;;;;;;;3.92;1.9;;;9.9;99.9;;;;;;;;;
2021/05/26 00:52:06;;;;;;;3.92;1.9;;;9.9;99.9;;;;;;;;;
2021/05/26 00:52:17;;;;;;;3.92;1.9;;;9.9;99.9;;;;;;;;;
2021/05/26 00:52:27;;;;;;;2.22;1.6;;;9.9;99.9;;;;;;;;;
2021/05/26 00:52:42;;;;;;;2.22;1.6;;;9.9;99.9;;;;;;;;;
2021/05/26 00:52:54;;;;;;;2.22;1.6;;;9.9;99.9;;;;;;;;;
2021/05/26 00:53:01;;;;;;;2.22;1.6;;;9.9;99.9;;;;;;;;;
2021/05/26 00:53:08;;;;;;;2.22;1.6;;;9.9;99.9;;;;;;;;;
2021/05/26 00:53:13;;;;;;;2.22;1.6;;;9.9;99.9;;;;;;;;;
2021/05/26 00:53:30;;;;;;;2.13;1.8;;;9.9;99.9;;;;;;;;;
2021/05/26 00:53:39;;;;;;;2.13;1.8;;;9.9;99.9;;;;;;;;;
2021/05/26 00:54:02;;;;;;;2.13;1.8;;;9.9;99.9;;;;;;;;;
2021/05/26 00:54:14;;;;;;;2.13;1.8;;;9.9;99.9;;;;;;;;;
2021/05/26 00:54:14;;;;;;;2.13;1.8;;;9.9;99.9;;;;;;;;;
2021/05/26 00:54:14;;;;;;;2.13;1.8;;;9.9;99.9;;;;;;;;;
2021/05/26 00:54:30;;;;;;;2.9;1.8;;;9.9;99.9;;;;;;;;;
2021/05/26 00:54:40;;;;;;;2.9;1.8;;;9.9;99.9;;;;;;;;;
2021/05/26 00:54:55;;;;;;;2.9;1.8;;;9.9;99.9;;;;;;;;;
2021/05/26 00:55:02;;;;;;;2.9;1.8;;;9.9;99.9;;;;;;;;;
2021/05/26 00:55:11;;;;;;;2.9;1.8;;;9.9;99.9;;;;;;;;;
2021/05/26 00:55:16;;;;;;;2.9;1.8;;;9.9;99.9;;;;;;;;;
2021/05/26 00:55:26;;;;;;;2.9;1.8;;;9.9;99.9;;;;;;;;;
2021/05/26 00:55:42;;;;;;;2.25;1.67;;;9.9;99.9;;;;;;;;;
2021/05/26 00:55:52;;;;;;;2.25;1.67;;;9.9;99.9;;;;;;;;;
2021/05/26 00:56:02;;;;;;;2.25;1.67;;;9.9;99.9;;;;;;;;;
2021/05/26 00:56:17;;;;;;;2.25;1.67;;;9.9;99.9;;;;;;;;;
2021/05/26 00:56:28;;;;;;;3.03;2.1;;;9.9;99.9;;;;;;;;;
2021/05/26 00:56:28;;;;;;;3.03;2.1;;;9.9;99.9;;;;;;;;;
2021/05/26 00:56:43;;;;;;;3.03;2.1;;;9.9;99.9;;;;;;;;;
2021/05/26 00:56:53;;;;;;;3.03;2.1;;;9.9;99.9;;;;;;;;;
2021/05/26 00:57:02;;;;;;;3.03;2.1;;;9.9;99.9;;;;;;;;;
2021/05/26 00:57:08;;;;;;;3.03;2.1;;;9.9;99.9;;;;;;;;;
2021/05/26 00:57:14;;;;;;;3.03;2.1;;;9.9;99.9;;;;;;;;;
2021/05/26 00:57:29;;;;;;;2.63;1.58;;;9.8;99.9;;;;;;;;;
2021/05/26 00:57:39;;;;;;;2.63;1.58;;;9.8;99.9;;;;;;;;;
2021/05/26 00:57:55;;;;;;;2.63;1.58;;;9.8;99.9;;;;;;;;;
2021/05/26 00:58:01;;;;;;;2.63;1.58;;;9.8;99.9;;;;;;;;;
2021/05/26 00:58:05;;;;;;;2.63;1.58;;;9.8;99.9;;;;;;;;;
2021/05/26 00:58:15;;;;;;;2.63;1.58;;;9.8;99.9;;;;;;;;;
2021/05/26 00:58:30;;;;;;;3.08;1.75;;;9.8;99.9;;;;;;;;;
2021/05/26 00:58:41;;;;;;;3.08;1.75;;;9.8;99.9;;;;;;;;;
2021/05/26 00:58:56;;;;;;;3.08;1.75;;;9.8;99.9;;;;;;;;;
2021/05/26 00:59:01;;;;;;;3.08;1.75;;;9.8;99.9;;;;;;;;;
2021/05/26 00:59:06;;;;;;;3.08;1.75;;;9.8;99.9;;;;;;;;;
2021/05/26 00:59:17;;;;;;;3.08;1.75;;;9.8;99.9;;;;;;;;;
2021/05/26 00:59:27;;;;;;;3.08;1.75;;;9.8;99.9;;;;;;;;;
2021/05/26 00:59:42;;;;;;;2.45;1.98;;;9.9;99.9;;;;;;;;;
2021/05/26 00:59:52;;;;;;;2.45;1.98;;;9.9;99.9;;;;;;;;;
2021/05/26 01:00:02;;;;;;;2.45;1.98;;;9.9;99.9;;;;;;;;;
2021/05/26 01:00:08;;;;;;;2.45;1.98;;;9.9;99.9;;;;;;;;;
2021/05/26 01:00:13;;;;;;;2.45;1.98;;;9.9;99.9;;;;;;;;;
2021/05/26 01:00:28;;;;;;;2.45;1.98;;;9.9;99.9;;;;;;;;;
2021/05/26 01:00:44;;;;;;;3.72;1.7;;;9.8;99.9;;;;;;;;;
2021/05/26 01:00:56;;;;;;;3.72;1.7;;;9.8;99.9;;;;;;;;;
2021/05/26 01:01:02;;;;;;;3.72;1.7;;;9.8;99.9;;;;;;;;;
2021/05/26 01:01:09;;;;;;;3.72;1.7;;;9.8;99.9;;;;;;;;;
2021/05/26 01:01:14;;;;;;;3.72;1.7;;;9.8;99.9;;;;;;;;;
2021/05/26 01:01:30;;;;;;;3.35;1.65;;;9.7;99.9;;;;;;;;;
2021/05/26 01:01:40;;;;;;;3.35;1.65;;;9.7;99.9;;;;;;;;;
2021/05/26 01:01:55;;;;;;;3.35;1.65;;;9.7;99.9;;;;;;;;;
2021/05/26 01:02:02;;;;;;;3.35;1.65;;;9.7;99.9;;;;;;;;;
2021/05/26 01:02:05;;;;;;;3.35;1.65;;;9.7;99.9;;;;;;;;;
2021/05/26 01:02:16;;;;;;;3.35;1.65;;;9.7;99.9;;;;;;;;;
2021/05/26 01:02:26;;;;;;;3.35;1.65;;;9.7;99.9;;;;;;;;;
2021/05/26 01:02:41;;;;;;;2.55;1.83;;;9.7;99.9;;;;;;;;;
2021/05/26 01:02:57;;;;;;;2.55;1.83;;;9.7;99.9;;;;;;;;;
2021/05/26 01:03:01;;;;;;;2.55;1.83;;;9.7;99.9;;;;;;;;;
2021/05/26 01:03:07;;;;;;;2.55;1.83;;;9.7;99.9;;;;;;;;;
2021/05/26 01:03:12;;;;;;;2.55;1.83;;;9.7;99.9;;;;;;;;;
2021/05/26 01:03:28;;;;;;;2.55;1.83;;;9.7;99.9;;;;;;;;;
2021/05/26 01:03:43;;;;;;;2.92;1.8;;;9.7;99.9;;;;;;;;;
2021/05/26 01:03:53;;;;;;;2.92;1.8;;;9.7;99.9;;;;;;;;;
2021/05/26 01:04:02;;;;;;;2.92;1.8;;;9.7;99.9;;;;;;;;;
2021/05/26 01:04:08;;;;;;;2.92;1.8;;;9.7;99.9;;;;;;;;;
2021/05/26 01:04:13;;;;;;;2.92;1.8;;;9.7;99.9;;;;;;;;;
2021/05/26 01:04:29;;;;;;;2.92;1.8;;;9.7;99.9;;;;;;;;;
2021/05/26 01:04:39;;;;;;;2;1.52;;;9.9;99.9;;;;;;;;;
2021/05/26 01:04:54;;;;;;;2;1.52;;;9.9;99.9;;;;;;;;;
2021/05/26 01:05:02;;;;;;;2;1.52;;;9.9;99.9;;;;;;;;;
2021/05/26 01:05:10;;;;;;;2;1.52;;;9.9;99.9;;;;;;;;;
2021/05/26 01:05:15;;;;;;;2;1.52;;;9.9;99.9;;;;;;;;;
2021/05/26 01:05:25;;;;;;;2;1.52;;;9.9;99.9;;;;;;;;;
2021/05/26 01:05:41;;;;;;;3.28;1.95;;;9.8;99.9;;;;;;;;;
2021/05/26 01:05:56;;;;;;;3.28;1.95;;;9.8;99.9;;;;;;;;;
2021/05/26 01:06:02;;;;;;;3.28;1.95;;;9.8;99.9;;;;;;;;;
2021/05/26 01:06:06;;;;;;;3.28;1.95;;;9.8;99.9;;;;;;;;;
2021/05/26 01:06:16;;;;;;;3.28;1.95;;;9.8;99.9;;;;;;;;;
2021/05/26 01:06:27;;;;;;;3.28;1.95;;;9.8;99.9;;;;;;;;;
2021/05/26 01:06:43;;;;;;;3.22;1.5;;;9.9;99.9;;;;;;;;;
2021/05/26 01:06:52;;;;;;;3.22;1.5;;;9.9;99.9;;;;;;;;;
2021/05/26 01:07:02;;;;;;;3.22;1.5;;;9.9;99.9;;;;;;;;;
2021/05/26 01:07:09;;;;;;;3.22;1.5;;;9.9;99.9;;;;;;;;;
2021/05/26 01:07:13;;;;;;;3.22;1.5;;;9.9;99.9;;;;;;;;;
2021/05/26 01:07:28;;;;;;;3.22;1.5;;;9.9;99.9;;;;;;;;;
2021/05/26 01:07:39;;;;;;;5.78;1.7;;;9.8;99.9;;;;;;;;;
2021/05/26 01:07:54;;;;;;;5.78;1.7;;;9.8;99.9;;;;;;;;;
2021/05/26 01:08:01;;;;;;;5.78;1.7;;;9.8;99.9;;;;;;;;;
2021/05/26 01:08:09;;;;;;;5.78;1.7;;;9.8;99.9;;;;;;;;;
2021/05/26 01:08:14;;;;;;;5.78;1.7;;;9.8;99.9;;;;;;;;;
2021/05/26 01:08:30;;;;;;;5.78;1.7;;;9.8;99.9;;;;;;;;;
2021/05/26 01:08:40;;;;;;;1.95;1.52;;;9.8;99.9;;;;;;;;;
2021/05/26 01:08:55;;;;;;;1.95;1.52;;;9.8;99.9;;;;;;;;;
2021/05/26 01:09:02;;;;;;;1.95;1.52;;;9.8;99.9;;;;;;;;;
2021/05/26 01:09:05;;;;;;;1.95;1.52;;;9.8;99.9;;;;;;;;;
2021/05/26 01:09:16;;;;;;;1.95;1.52;;;9.8;99.9;;;;;;;;;
2021/05/26 01:09:26;;;;;;;1.95;1.52;;;9.8;99.9;;;;;;;;;
2021/05/26 01:09:41;;;;;;;3.35;1.77;;;9.8;99.9;;;;;;;;;
2021/05/26 01:09:51;;;;;;;3.35;1.77;;;9.8;99.9;;;;;;;;;
2021/05/26 01:10:01;;;;;;;3.35;1.77;;;9.8;99.9;;;;;;;;;
2021/05/26 01:10:07;;;;;;;3.35;1.77;;;9.8;99.9;;;;;;;;;
2021/05/26 01:10:12;;;;;;;3.35;1.77;;;9.8;99.9;;;;;;;;;
2021/05/26 01:10:27;;;;;;;3.35;1.77;;;9.8;99.9;;;;;;;;;
2021/05/26 01:10:43;;;;;;;2.35;1.9;;;9.7;99.9;;;;;;;;;
2021/05/26 01:10:53;;;;;;;2.35;1.9;;;9.7;99.9;;;;;;;;;
2021/05/26 01:11:02;;;;;;;2.35;1.9;;;9.7;99.9;;;;;;;;;
2021/05/26 01:11:09;;;;;;;2.35;1.9;;;9.7;99.9;;;;;;;;;
2021/05/26 01:11:13;;;;;;;2.35;1.9;;;9.7;99.9;;;;;;;;;
2021/05/26 01:11:29;;;;;;;2.35;1.9;;;9.7;99.9;;;;;;;;;
2021/05/26 01:11:39;;;;;;;2.67;1.67;;;9.8;99.9;;;;;;;;;
2021/05/26 01:11:54;;;;;;;2.67;1.67;;;9.8;99.9;;;;;;;;;
2021/05/26 01:12:02;;;;;;;2.67;1.67;;;9.8;99.9;;;;;;;;;
2021/05/26 01:12:04;;;;;;;2.67;1.67;;;9.8;99.9;;;;;;;;;
2021/05/26 01:12:15;;;;;;;2.67;1.67;;;9.8;99.9;;;;;;;;;
2021/05/26 01:12:25;;;;;;;2.67;1.67;;;9.8;99.9;;;;;;;;;
2021/05/26 01:12:40;;;;;;;2.72;1.55;;;9.8;99.9;;;;;;;;;
2021/05/26 01:12:56;;;;;;;2.72;1.55;;;9.8;99.9;;;;;;;;;
2021/05/26 01:13:01;;;;;;;2.72;1.55;;;9.8;99.9;;;;;;;;;
2021/05/26 01:13:06;;;;;;;2.72;1.55;;;9.8;99.9;;;;;;;;;
2021/05/26 01:13:19;;;;;;;2.72;1.55;;;9.8;99.9;;;;;;;;;
2021/05/26 01:13:26;;;;;;;2.72;1.55;;;9.8;99.9;;;;;;;;;
2021/05/26 01:13:42;;;;;;;5.07;1.8;;;9.9;99.9;;;;;;;;;
2021/05/26 01:13:52;;;;;;;5.07;1.8;;;9.9;99.9;;;;;;;;;
2021/05/26 01:14:02;;;;;;;5.07;1.8;;;9.9;99.9;;;;;;;;;
2021/05/26 01:14:07;;;;;;;5.07;1.8;;;9.9;99.9;;;;;;;;;
2021/05/26 01:14:18;;;;;;;5.07;1.8;;;9.9;99.9;;;;;;;;;
2021/05/26 01:14:28;;;;;;;5.07;1.8;;;9.9;99.9;;;;;;;;;
2021/05/26 01:14:38;;;;;;;3.47;1.7;;;9.9;99.9;;;;;;;;;
2021/05/26 01:14:53;;;;;;;3.47;1.7;;;9.9;99.9;;;;;;;;;
2021/05/26 01:15:01;;;;;;;3.47;1.7;;;9.9;99.9;;;;;;;;;
2021/05/26 01:15:09;;;;;;;3.47;1.7;;;9.9;99.9;;;;;;;;;
2021/05/26 01:15:14;;;;;;;3.47;1.7;;;9.9;99.9;;;;;;;;;
2021/05/26 01:15:29;;;;;;;3.47;1.7;;;9.9;99.9;;;;;;;;;
2021/05/26 01:15:40;;;;;;;3.58;1.6;;;9.9;99.9;;;;;;;;;
2021/05/26 01:15:55;;;;;;;3.58;1.6;;;9.9;99.9;;;;;;;;;
2021/05/26 01:16:02;;;;;;;3.58;1.6;;;9.9;99.9;;;;;;;;;
2021/05/26 01:16:05;;;;;;;3.58;1.6;;;9.9;99.9;;;;;;;;;
2021/05/26 01:16:15;;;;;;;3.58;1.6;;;9.9;99.9;;;;;;;;;
2021/05/26 01:16:31;;;;;;;3.58;1.6;;;9.9;99.9;;;;;;;;;
2021/05/26 01:16:41;;;;;;;3.55;1.63;;;9.8;99.9;;;;;;;;;
2021/05/26 01:16:51;;;;;;;3.55;1.63;;;9.8;99.9;;;;;;;;;
2021/05/26 01:17:02;;;;;;;3.55;1.63;;;9.8;99.9;;;;;;;;;
2021/05/26 01:17:07;;;;;;;3.55;1.63;;;9.8;99.9;;;;;;;;;
2021/05/26 01:17:17;;;;;;;3.55;1.63;;;9.8;99.9;;;;;;;;;
2021/05/26 01:17:27;;;;;;;3.55;1.63;;;9.8;99.9;;;;;;;;;